createdAt,value
2019-06-20T00:00:52.563Z,15.98
2019-06-20T00:03:21.042Z,15.53
2019-06-20T00:05:47.997Z,19.32
2019-06-20T00:08:14.947Z,17.02
2019-06-20T00:10:41.894Z,20.20
2019-06-20T00:13:08.855Z,13.83
2019-06-20T00:19:09.150Z,16.15
2019-06-20T00:21:36.128Z,18.27
2019-06-20T00:24:04.110Z,13.68
2019-06-20T00:26:31.063Z,16.20
2019-06-20T00:28:58.325Z,18.92
2019-06-20T00:31:26.555Z,15.90
2019-06-20T00:33:53.687Z,14.18
2019-06-20T00:36:20.645Z,17.17
2019-06-20T00:38:48.177Z,16.67
2019-06-20T00:41:15.123Z,15.90
2019-06-20T00:43:42.128Z,16.90
2019-06-20T00:46:10.083Z,13.32
2019-06-20T00:48:37.033Z,16.62
2019-06-20T00:51:04.001Z,13.43
2019-06-20T00:53:30.972Z,14.87
2019-06-20T00:55:57.939Z,18.12
2019-06-20T00:58:24.942Z,16.23
2019-06-20T01:00:51.901Z,15.65
2019-06-20T01:03:18.833Z,19.75
2019-06-20T01:05:45.805Z,23.80
2019-06-20T01:08:12.756Z,18.80
2019-06-20T01:14:13.163Z,23.32
2019-06-20T01:16:40.128Z,13.80
2019-06-20T01:19:07.096Z,16.73
2019-06-20T01:21:34.060Z,15.40
2019-06-20T01:24:01.003Z,14.28
2019-06-20T01:26:27.980Z,17.15
2019-06-20T01:28:54.960Z,14.28
2019-06-20T01:31:21.936Z,12.90
2019-06-20T01:33:48.880Z,13.25
2019-06-20T01:36:15.853Z,16.42
2019-06-20T01:38:42.807Z,14.55
2019-06-20T01:41:10.256Z,14.15
2019-06-20T01:43:50.263Z,17.35
2019-06-20T01:46:05.993Z,14.28
2019-06-20T01:48:32.943Z,14.80
2019-06-20T01:50:59.896Z,17.15
2019-06-20T01:53:26.826Z,12.73
2019-06-20T01:55:53.752Z,15.83
2019-06-20T01:58:20.721Z,15.20
2019-06-20T02:00:48.763Z,16.62
2019-06-20T02:03:16.035Z,15.60
2019-06-20T02:05:43.091Z,13.20
2019-06-20T02:08:10.060Z,11.70
2019-06-20T02:10:37.016Z,15.65
2019-06-20T02:13:04.197Z,14.53
2019-06-20T02:19:04.336Z,14.50
2019-06-20T02:21:31.295Z,10.68
2019-06-20T02:23:58.238Z,9.98
2019-06-20T02:26:27.944Z,11.28
2019-06-20T02:28:54.907Z,10.40
2019-06-20T02:31:21.989Z,10.05
2019-06-20T02:33:48.928Z,12.98
2019-06-20T02:36:16.148Z,12.45
2019-06-20T02:38:43.110Z,8.80
2019-06-20T02:41:10.848Z,9.03
2019-06-20T02:43:37.799Z,11.25
2019-06-20T02:46:04.770Z,12.18
2019-06-20T02:48:31.738Z,8.33
2019-06-20T02:51:00.358Z,10.68
2019-06-20T02:53:27.509Z,10.38
2019-06-20T02:55:55.215Z,10.23
2019-06-20T02:58:23.188Z,9.33
2019-06-20T03:00:56.282Z,11.18
2019-06-20T03:03:24.151Z,8.23
2019-06-20T03:05:52.109Z,8.20
2019-06-20T03:08:19.012Z,9.45
2019-06-20T03:10:45.979Z,7.60
2019-06-20T03:13:12.932Z,7.25
2019-06-20T03:15:39.924Z,7.50
2019-06-20T03:18:06.893Z,8.05
2019-06-20T03:20:33.861Z,7.53
2019-06-20T03:23:00.909Z,10.55
2019-06-20T03:25:27.879Z,7.45
2019-06-20T03:27:54.847Z,14.30
2019-06-20T03:30:22.081Z,7.55
2019-06-20T03:32:49.034Z,8.90
2019-06-20T03:35:15.996Z,11.53
2019-06-20T03:37:43.008Z,8.33
2019-06-20T03:40:11.343Z,6.15
2019-06-20T03:42:38.288Z,6.85
2019-06-20T03:45:06.235Z,6.50
2019-06-20T03:47:33.177Z,7.42
2019-06-20T03:50:00.152Z,9.18
2019-06-20T03:52:27.087Z,5.37
2019-06-20T03:54:57.092Z,6.50
2019-06-20T03:57:24.032Z,11.90
2019-06-20T03:59:51.941Z,18.20
2019-06-20T04:02:19.110Z,6.35
2019-06-20T04:04:46.144Z,9.70
2019-06-20T04:07:13.133Z,6.30
2019-06-20T04:09:40.311Z,5.37
2019-06-20T04:12:07.260Z,11.00
2019-06-20T04:14:35.050Z,7.78
2019-06-20T04:17:02.010Z,7.00
2019-06-20T04:19:28.953Z,5.90
2019-06-20T04:21:55.904Z,7.70
2019-06-20T04:24:22.925Z,7.08
2019-06-20T04:26:50.783Z,7.30
2019-06-20T04:29:17.725Z,9.88
2019-06-20T04:31:44.763Z,10.20
2019-06-20T04:34:11.744Z,6.05
2019-06-20T04:36:38.800Z,7.12
2019-06-20T04:39:18.656Z,6.62
2019-06-20T04:41:35.048Z,7.72
2019-06-20T04:44:02.104Z,7.05
2019-06-20T04:46:36.373Z,9.35
2019-06-20T04:49:03.676Z,8.33
2019-06-20T04:51:37.169Z,7.33
2019-06-20T04:54:04.382Z,9.43
2019-06-20T04:56:31.296Z,9.35
2019-06-20T04:58:58.280Z,6.80
2019-06-20T05:01:25.212Z,6.95
2019-06-20T05:03:52.972Z,5.33
2019-06-20T05:06:19.907Z,8.23
2019-06-20T05:08:46.875Z,8.33
2019-06-20T05:11:14.416Z,6.58
2019-06-20T05:13:41.796Z,5.35
2019-06-20T05:16:08.739Z,8.63
2019-06-20T05:18:36.364Z,7.65
2019-06-20T05:21:03.337Z,5.45
2019-06-20T05:23:30.361Z,6.80
2019-06-20T05:25:57.401Z,7.28
2019-06-20T05:28:24.381Z,7.15
2019-06-20T05:30:51.340Z,8.68
2019-06-20T05:33:18.359Z,9.30
2019-06-20T05:35:45.340Z,5.45
2019-06-20T05:38:12.270Z,6.03
2019-06-20T05:40:39.232Z,5.72
2019-06-20T05:43:08.047Z,5.25
2019-06-20T05:45:35.009Z,10.58
2019-06-20T05:48:01.967Z,7.75
2019-06-20T05:50:29.114Z,7.95
2019-06-20T05:52:56.143Z,7.28
2019-06-20T05:55:23.113Z,13.28
2019-06-20T05:57:50.050Z,7.08
2019-06-20T06:00:17.020Z,5.22
2019-06-20T06:02:44.783Z,6.95
2019-06-20T06:05:13.640Z,9.63
2019-06-20T06:09:21.935Z,8.68
2019-06-20T06:11:52.463Z,11.70
2019-06-20T06:14:19.615Z,5.90
2019-06-20T06:16:46.763Z,13.30
2019-06-20T06:19:13.741Z,7.50
2019-06-20T06:21:40.717Z,8.58
2019-06-20T06:24:07.914Z,12.50
2019-06-20T06:26:35.058Z,7.58
2019-06-20T06:29:02.207Z,6.50
2019-06-20T06:31:29.357Z,9.43
2019-06-20T06:33:56.508Z,9.83
2019-06-20T06:36:23.594Z,5.80
2019-06-20T06:38:50.809Z,8.78
2019-06-20T06:41:19.191Z,5.97
2019-06-20T06:43:46.207Z,6.17
2019-06-20T06:46:13.630Z,6.70
2019-06-20T06:48:40.945Z,9.95
2019-06-20T06:51:08.402Z,12.53
2019-06-20T06:53:35.552Z,12.85
2019-06-20T06:56:05.185Z,10.85
2019-06-20T06:58:32.313Z,7.55
2019-06-20T07:00:59.460Z,10.03
2019-06-20T07:03:26.612Z,8.88
2019-06-20T07:05:53.763Z,11.03
2019-06-20T07:08:20.911Z,6.33
2019-06-20T07:10:48.080Z,9.38
2019-06-20T07:13:15.087Z,6.40
2019-06-20T07:15:43.165Z,9.95
2019-06-20T07:18:10.432Z,7.50
2019-06-20T07:20:37.418Z,7.60
2019-06-20T07:23:04.361Z,8.73
2019-06-20T07:25:31.616Z,9.55
2019-06-20T07:27:58.728Z,10.25
2019-06-20T07:30:26.120Z,6.72
2019-06-20T07:32:54.114Z,10.50
2019-06-20T07:35:21.037Z,14.73
2019-06-20T07:37:48.142Z,17.50
2019-06-20T07:40:16.901Z,11.12
2019-06-20T07:42:43.992Z,9.85
2019-06-20T07:45:11.053Z,13.32
2019-06-20T07:47:38.117Z,7.80
2019-06-20T07:50:07.628Z,5.75
2019-06-20T07:52:34.690Z,5.42
2019-06-20T07:55:01.612Z,8.88
2019-06-20T07:57:28.638Z,8.08
2019-06-20T07:59:55.588Z,6.40
2019-06-20T08:02:22.592Z,5.55
2019-06-20T08:04:49.943Z,7.42
2019-06-20T08:07:48.669Z,7.12
2019-06-20T08:10:16.354Z,8.53
2019-06-20T08:12:43.311Z,13.08
2019-06-20T08:15:15.507Z,6.20
2019-06-20T08:17:40.336Z,8.85
2019-06-20T08:20:09.309Z,6.08
2019-06-20T08:22:36.247Z,9.88
2019-06-20T08:25:05.380Z,5.55
2019-06-20T08:27:51.462Z,6.17
2019-06-20T08:30:27.296Z,5.08
2019-06-20T08:32:54.353Z,8.08
2019-06-20T08:35:22.919Z,8.38
2019-06-20T08:37:50.201Z,7.12
2019-06-20T08:40:17.528Z,10.88
2019-06-20T08:42:44.492Z,7.33
2019-06-20T08:45:12.151Z,8.33
2019-06-20T08:47:39.116Z,6.17
2019-06-20T08:50:07.083Z,5.42
2019-06-20T08:52:34.041Z,5.60
2019-06-20T08:55:01.299Z,7.45
2019-06-20T08:57:28.250Z,8.05
2019-06-20T08:59:57.378Z,6.90
2019-06-20T09:02:25.310Z,7.78
2019-06-20T09:04:54.827Z,6.78
2019-06-20T09:07:21.102Z,8.08
2019-06-20T09:09:48.089Z,14.83
2019-06-20T09:12:15.121Z,7.00
2019-06-20T09:14:42.083Z,4.62
2019-06-20T09:17:10.232Z,7.33
2019-06-20T09:19:37.219Z,7.30
2019-06-20T09:22:05.019Z,9.53
2019-06-20T09:24:32.251Z,5.37
2019-06-20T09:26:59.380Z,6.72
2019-06-20T09:29:40.806Z,5.67
2019-06-20T09:31:55.644Z,11.28
2019-06-20T09:34:22.757Z,10.58
2019-06-20T09:36:52.015Z,7.25
2019-06-20T09:39:18.517Z,13.22
2019-06-20T09:41:45.488Z,9.05
2019-06-20T09:44:12.443Z,6.15
2019-06-20T09:46:39.417Z,5.37
2019-06-20T09:49:06.364Z,10.38
2019-06-20T09:51:33.341Z,9.45
2019-06-20T09:54:00.314Z,7.97
2019-06-20T09:56:27.320Z,15.05
2019-06-20T09:58:55.329Z,12.20
2019-06-20T10:01:22.556Z,6.07
2019-06-20T10:03:50.515Z,6.30
2019-06-20T10:06:17.777Z,5.53
2019-06-20T10:08:46.612Z,13.28
2019-06-20T10:11:13.512Z,6.78
2019-06-20T10:13:40.475Z,7.45
2019-06-20T10:16:07.456Z,9.03
2019-06-20T10:18:34.429Z,9.53
2019-06-20T10:21:01.372Z,9.08
2019-06-20T10:26:03.653Z,7.17
2019-06-20T10:28:31.343Z,5.37
2019-06-20T10:30:58.284Z,7.00
2019-06-20T10:33:25.239Z,8.75
2019-06-20T10:35:52.613Z,4.67
2019-06-20T10:38:19.957Z,6.40
2019-06-20T10:40:47.900Z,10.25
2019-06-20T10:43:15.221Z,5.70
2019-06-20T10:45:44.102Z,5.60
2019-06-20T10:50:38.862Z,6.40
2019-06-20T10:53:05.830Z,5.62
2019-06-20T10:55:32.780Z,5.62
2019-06-20T10:58:00.032Z,5.87
2019-06-20T11:00:31.366Z,8.08
2019-06-20T11:02:56.568Z,6.90
2019-06-20T11:05:24.318Z,6.78
2019-06-20T11:07:51.267Z,6.28
2019-06-20T11:10:19.235Z,6.55
2019-06-20T11:12:52.327Z,6.33
2019-06-20T11:15:17.371Z,6.42
2019-06-20T11:17:44.377Z,6.67
2019-06-20T11:20:20.639Z,10.78
2019-06-20T11:22:47.968Z,10.93
2019-06-20T11:25:18.979Z,8.75
2019-06-20T11:27:44.767Z,7.67
2019-06-20T11:30:15.503Z,8.98
2019-06-20T11:32:43.506Z,8.65
2019-06-20T11:35:11.324Z,5.85
2019-06-20T11:37:39.594Z,6.03
2019-06-20T11:40:07.835Z,7.25
2019-06-20T11:42:36.023Z,4.73
2019-06-20T11:45:05.466Z,10.85
2019-06-20T11:47:32.532Z,5.90
2019-06-20T11:50:01.079Z,6.30
2019-06-20T11:52:28.057Z,7.35
2019-06-20T11:54:55.013Z,8.95
2019-06-20T11:57:28.074Z,6.28
2019-06-20T11:59:55.015Z,8.25
2019-06-20T12:02:21.936Z,5.60
2019-06-20T12:04:49.150Z,9.28
2019-06-20T12:07:16.356Z,11.10
2019-06-20T12:09:44.219Z,7.50
2019-06-20T12:12:11.340Z,6.97
2019-06-20T12:14:39.716Z,9.08
2019-06-20T12:17:13.217Z,7.25
2019-06-20T12:19:40.875Z,6.67
2019-06-20T12:22:08.250Z,10.13
2019-06-20T12:24:35.199Z,6.35
2019-06-20T12:27:03.142Z,7.35
2019-06-20T12:29:30.123Z,7.45
2019-06-20T12:31:57.083Z,9.93
2019-06-20T12:34:24.064Z,8.40
2019-06-20T12:36:50.999Z,8.00
2019-06-20T12:39:17.947Z,18.82
2019-06-20T12:41:45.611Z,11.05
2019-06-20T12:44:12.888Z,11.97
2019-06-20T12:46:40.936Z,8.58
2019-06-20T12:49:08.092Z,10.93
2019-06-20T12:51:35.058Z,8.10
2019-06-20T12:54:02.020Z,8.18
2019-06-20T12:56:28.980Z,7.97
2019-06-20T12:58:56.884Z,8.08
2019-06-20T13:01:35.609Z,7.70
2019-06-20T13:03:55.863Z,7.72
2019-06-20T13:06:22.811Z,6.83
2019-06-20T13:08:49.769Z,11.10
2019-06-20T13:11:16.729Z,14.03
2019-06-20T13:13:44.410Z,7.58
2019-06-20T13:16:11.640Z,7.47
2019-06-20T13:18:39.658Z,26.33
2019-06-20T13:21:07.737Z,24.40
2019-06-20T13:23:34.888Z,51.63
2019-06-20T13:26:02.043Z,19.40
2019-06-20T13:28:29.039Z,9.15
2019-06-20T13:30:56.042Z,11.08
2019-06-20T13:33:23.138Z,6.78
2019-06-20T13:35:50.891Z,9.10
2019-06-20T13:38:18.159Z,9.48
2019-06-20T13:40:45.353Z,11.38
2019-06-20T13:43:12.437Z,7.97
2019-06-20T13:45:41.183Z,10.63
2019-06-20T13:48:08.626Z,10.10
2019-06-20T13:50:35.785Z,9.60
2019-06-20T13:53:02.719Z,9.48
2019-06-20T13:55:30.140Z,10.55
2019-06-20T13:57:57.092Z,12.33
2019-06-20T14:00:27.245Z,8.90
2019-06-20T14:02:54.204Z,10.28
2019-06-20T14:05:21.171Z,11.50
2019-06-20T14:07:53.261Z,9.68
2019-06-20T14:10:17.255Z,35.83
2019-06-20T14:12:44.730Z,53.78
2019-06-20T14:15:13.196Z,36.10
2019-06-20T14:17:41.518Z,55.77
2019-06-20T14:20:09.047Z,60.45
2019-06-20T14:22:36.004Z,110.45
2019-06-20T14:25:05.520Z,73.15
2019-06-20T14:27:35.004Z,49.95
2019-06-20T14:30:01.228Z,40.85
2019-06-20T14:32:28.181Z,34.65
2019-06-20T14:34:55.135Z,23.90
2019-06-20T14:37:22.084Z,16.93
2019-06-20T14:39:50.938Z,22.02
2019-06-20T14:42:17.808Z,22.10
2019-06-20T14:44:45.967Z,20.70
2019-06-20T14:47:13.441Z,27.82
2019-06-20T14:49:40.409Z,22.90
2019-06-20T14:52:07.357Z,17.00
2019-06-20T14:54:34.337Z,21.68
2019-06-20T14:57:01.268Z,14.73
2019-06-20T14:59:28.241Z,17.12
2019-06-20T15:01:55.537Z,11.50
2019-06-20T15:04:22.572Z,11.22
2019-06-20T15:06:50.453Z,8.93
2019-06-20T15:09:17.969Z,12.10
2019-06-20T15:11:46.514Z,14.40
2019-06-20T15:14:13.688Z,12.55
2019-06-20T15:16:41.763Z,14.07
2019-06-20T15:19:08.736Z,11.25
2019-06-20T15:21:35.704Z,11.60
2019-06-20T15:24:02.641Z,10.50
2019-06-20T15:26:29.607Z,16.55
2019-06-20T15:28:57.050Z,11.12
2019-06-20T15:31:24.235Z,18.77
2019-06-20T15:33:51.604Z,9.95
2019-06-20T15:36:20.458Z,11.97
2019-06-20T15:38:48.206Z,12.03
2019-06-20T15:41:16.413Z,14.93
2019-06-20T15:43:43.419Z,11.18
2019-06-20T15:46:10.516Z,12.65
2019-06-20T15:48:37.639Z,11.97
2019-06-20T15:51:04.629Z,14.25
2019-06-20T15:53:31.571Z,14.18
2019-06-20T15:55:58.540Z,17.27
2019-06-20T15:58:26.596Z,10.80
2019-06-20T16:00:53.586Z,13.55
2019-06-20T16:03:20.552Z,14.83
2019-06-20T16:05:47.499Z,10.63
2019-06-20T16:08:14.449Z,13.78
2019-06-20T16:10:41.418Z,13.88
2019-06-20T16:13:08.373Z,10.82
2019-06-20T16:15:35.386Z,13.00
2019-06-20T16:18:02.610Z,14.43
2019-06-20T16:20:29.799Z,11.10
2019-06-20T16:22:58.033Z,13.95
2019-06-20T16:25:24.979Z,18.62
2019-06-20T16:27:51.942Z,19.62
2019-06-20T16:30:19.714Z,15.28
2019-06-20T16:32:46.688Z,17.92
2019-06-20T16:35:16.139Z,14.68
2019-06-20T16:37:43.335Z,16.80
2019-06-20T16:40:12.808Z,37.58
2019-06-20T16:42:40.474Z,20.05
2019-06-20T16:45:09.946Z,14.60
2019-06-20T16:50:06.195Z,15.63
2019-06-20T16:52:33.173Z,15.75
2019-06-20T16:55:00.517Z,17.30
2019-06-20T16:57:27.472Z,18.65
2019-06-20T16:59:54.837Z,17.90
2019-06-20T17:02:23.307Z,17.85
2019-06-20T17:04:56.477Z,27.17
2019-06-20T17:07:24.430Z,14.68
2019-06-20T17:09:51.475Z,11.80
2019-06-20T17:12:18.488Z,16.57
2019-06-20T17:14:46.753Z,15.70
2019-06-20T17:17:13.709Z,19.10
2019-06-20T17:19:42.185Z,35.38
2019-06-20T17:22:09.620Z,79.22
2019-06-20T17:24:36.771Z,69.90
2019-06-20T17:27:03.923Z,43.00
2019-06-20T17:29:31.992Z,34.20
2019-06-20T17:31:59.144Z,33.23
2019-06-20T17:34:26.293Z,30.80
2019-06-20T17:36:53.750Z,25.02
2019-06-20T17:39:20.901Z,22.40
2019-06-20T17:41:55.073Z,19.15
2019-06-20T17:44:17.659Z,18.12
2019-06-20T17:46:44.815Z,21.57
2019-06-20T17:49:11.959Z,29.48
2019-06-20T17:51:40.133Z,44.83
2019-06-20T17:54:07.489Z,51.90
2019-06-20T17:56:34.638Z,53.95
2019-06-20T17:59:01.789Z,39.45
2019-06-20T18:01:28.939Z,38.23
2019-06-20T18:03:56.089Z,30.80
2019-06-20T18:06:24.083Z,25.60
2019-06-20T18:08:51.637Z,35.30
2019-06-20T18:11:18.807Z,34.13
2019-06-20T18:13:45.922Z,25.08
2019-06-20T18:16:24.692Z,21.93
2019-06-20T18:18:42.680Z,21.65
2019-06-20T18:21:10.137Z,25.72
2019-06-20T18:23:44.658Z,24.90
2019-06-20T18:26:11.807Z,24.55
2019-06-20T18:28:38.963Z,24.07
2019-06-20T18:31:06.108Z,25.65
2019-06-20T18:33:33.269Z,28.25
2019-06-20T18:36:00.439Z,24.50
2019-06-20T18:38:28.173Z,29.42
2019-06-20T18:40:55.323Z,53.33
2019-06-20T18:43:22.473Z,32.98
2019-06-20T18:45:49.629Z,47.83
2019-06-20T18:48:16.773Z,25.27
2019-06-20T18:50:43.924Z,34.13
2019-06-20T18:53:11.088Z,31.55
2019-06-20T18:55:38.226Z,44.67
2019-06-20T18:58:05.376Z,31.80
2019-06-20T19:00:34.992Z,28.55
2019-06-20T19:03:01.754Z,21.30
2019-06-20T19:05:28.989Z,28.50
2019-06-20T19:07:56.124Z,25.68
2019-06-20T19:10:26.083Z,24.43
2019-06-20T19:12:53.202Z,25.72
2019-06-20T19:15:20.869Z,23.00
2019-06-20T19:17:48.107Z,24.37
2019-06-20T19:20:15.562Z,20.80
2019-06-20T19:22:42.714Z,22.45
2019-06-20T19:25:11.532Z,23.92
2019-06-20T19:27:46.088Z,26.33
2019-06-20T19:30:09.312Z,29.67
2019-06-20T19:32:36.241Z,22.62
2019-06-20T19:35:10.169Z,25.77
2019-06-20T19:37:36.781Z,22.32
2019-06-20T19:40:07.070Z,24.37
2019-06-20T19:42:34.045Z,27.90
2019-06-20T19:45:00.993Z,24.20
2019-06-20T19:47:27.945Z,21.75
2019-06-20T19:49:55.190Z,20.50
2019-06-20T19:52:22.379Z,19.65
2019-06-20T19:54:49.490Z,19.73
2019-06-20T19:57:16.498Z,20.35
2019-06-20T19:59:46.135Z,20.75
2019-06-20T20:02:12.289Z,20.48
2019-06-20T20:04:39.243Z,23.60
2019-06-20T20:07:07.186Z,17.50
2019-06-20T20:09:34.135Z,22.15
2019-06-20T20:12:02.705Z,22.93
2019-06-20T20:14:29.807Z,23.05
2019-06-20T20:16:56.848Z,35.40
2019-06-20T20:19:24.067Z,35.68
2019-06-20T20:21:51.213Z,41.05
2019-06-20T20:24:18.123Z,25.43
2019-06-20T20:26:45.351Z,20.92
2019-06-20T20:29:12.306Z,20.62
2019-06-20T20:31:39.253Z,20.52
2019-06-20T20:34:06.231Z,24.45
2019-06-20T20:36:33.392Z,21.25
2019-06-20T20:39:00.372Z,20.80
2019-06-20T20:41:27.320Z,24.80
2019-06-20T20:43:54.644Z,25.35
2019-06-20T20:46:21.652Z,24.55
2019-06-20T20:48:48.636Z,23.55
2019-06-20T20:51:15.572Z,24.67
2019-06-20T20:53:43.681Z,20.15
2019-06-20T20:56:12.190Z,15.45
2019-06-20T20:58:39.705Z,22.02
2019-06-20T21:01:13.065Z,19.82
2019-06-20T21:03:43.371Z,21.00
2019-06-20T21:06:10.379Z,17.77
2019-06-20T21:08:37.837Z,13.80
2019-06-20T21:11:04.876Z,15.03
2019-06-20T21:13:31.853Z,14.28
2019-06-20T21:16:02.469Z,19.42
2019-06-20T21:18:29.833Z,15.98
2019-06-20T21:20:56.875Z,17.45
2019-06-20T21:23:24.160Z,17.02
2019-06-20T21:25:51.193Z,18.75
2019-06-20T21:28:18.151Z,15.00
2019-06-20T21:30:45.102Z,15.18
2019-06-20T21:33:12.130Z,18.37
2019-06-20T21:35:39.752Z,15.93
2019-06-20T21:38:07.243Z,16.23
2019-06-20T21:40:35.867Z,16.05
2019-06-20T21:43:02.837Z,18.12
2019-06-20T21:45:29.802Z,15.75
2019-06-20T21:47:56.757Z,16.17
2019-06-20T21:50:24.716Z,17.82
2019-06-20T21:52:51.743Z,18.85
2019-06-20T21:55:18.801Z,21.97
2019-06-20T21:57:46.713Z,23.18
2019-06-20T22:00:27.583Z,21.15
2019-06-20T22:02:56.351Z,20.57
2019-06-20T22:05:23.314Z,18.17
2019-06-20T22:07:50.244Z,17.12
2019-06-20T22:10:17.735Z,19.42
2019-06-20T22:12:44.804Z,18.52
2019-06-20T22:15:11.864Z,17.67
2019-06-20T22:20:28.010Z,21.45
2019-06-20T22:22:54.993Z,18.27
2019-06-20T22:25:22.045Z,19.40
2019-06-20T22:27:49.004Z,19.42
2019-06-20T22:30:19.356Z,18.40
2019-06-20T22:32:46.325Z,17.20
2019-06-20T22:35:13.725Z,18.30
2019-06-20T22:37:40.728Z,18.67
2019-06-20T22:40:08.961Z,16.70
2019-06-20T22:42:35.907Z,17.25
2019-06-20T22:45:06.980Z,16.85
2019-06-20T22:47:34.892Z,21.23
2019-06-20T22:50:04.201Z,16.27
2019-06-20T22:52:31.136Z,17.60
2019-06-20T22:54:58.091Z,15.03
2019-06-20T22:57:25.037Z,16.10
2019-06-20T22:59:51.983Z,16.07
2019-06-20T23:02:18.948Z,16.73
2019-06-20T23:04:45.913Z,22.15
2019-06-20T23:07:14.057Z,20.20
2019-06-20T23:09:40.997Z,18.32
2019-06-20T23:12:07.958Z,17.67
2019-06-20T23:14:34.916Z,18.42
2019-06-20T23:19:57.819Z,17.02
2019-06-20T23:22:24.910Z,15.75
2019-06-20T23:24:51.935Z,17.85
2019-06-20T23:27:18.989Z,16.07
2019-06-20T23:29:46.026Z,18.32
2019-06-20T23:32:13.088Z,17.67
2019-06-20T23:34:40.219Z,18.00
2019-06-20T23:37:12.559Z,17.07
2019-06-20T23:39:36.470Z,18.17
2019-06-20T23:42:03.540Z,17.20
2019-06-20T23:44:30.553Z,20.12
2019-06-20T23:46:57.603Z,19.15
2019-06-20T23:49:24.645Z,17.25
2019-06-20T23:51:56.535Z,17.30
2019-06-20T23:54:23.580Z,21.82
2019-06-20T23:56:50.635Z,18.55
2019-06-20T23:59:17.651Z,18.75
